Time;durP1;ratioP1;P1;durP2;ratioP2;P2;SDS_P1;SDS_P2;PMS_P1;PMS_P2;Temp;Humidity;BMP_temperature;BMP_pressure;BME280_temperature;BME280_humidity;BME280_pressure;Samples;Min_cycle;Max_cycle;Signal;HPM_P1;HPM_P2
2023/12/23 00:01:45;;;;;;;11.10;5.00;;;;;;;4.58;84.38;98167.35;108777;1277;21980;-60
2023/12/23 00:04:11;;;;;;;9.30;5.40;;;;;;;4.61;84.40;98163.64;108759;1277;22021;-59
2023/12/23 00:06:36;;;;;;;6.80;4.50;;;;;;;4.65;84.39;98157.97;108767;1277;21969;-60
2023/12/23 00:09:02;;;;;;;10.10;5.00;;;;;;;4.68;84.43;98152.33;108812;1276;21981;-62
2023/12/23 00:11:27;;;;;;;10.20;4.60;;;;;;;4.69;84.11;98147.47;108853;1277;21981;-60
2023/12/23 00:13:53;;;;;;;7.20;4.20;;;;;;;4.69;84.09;98143.45;108717;1277;21977;-62
2023/12/23 00:16:19;;;;;;;10.00;5.00;;;;;;;4.69;83.93;98143.45;108778;1277;21978;-62
2023/12/23 00:18:44;;;;;;;11.40;4.90;;;;;;;4.68;83.41;98144.52;108770;1277;21979;-60
2023/12/23 00:21:10;;;;;;;10.80;5.50;;;;;;;4.65;83.14;98139.02;108487;1277;21973;-62
2023/12/23 00:23:35;;;;;;;15.10;5.80;;;;;;;4.61;82.81;98133.39;108779;1267;22091;-60
2023/12/23 00:26:01;;;;;;;10.80;5.20;;;;;;;4.58;82.62;98140.24;108830;1277;22038;-61
2023/12/23 00:28:26;;;;;;;11.10;5.10;;;;;;;4.54;82.75;98142.42;108780;1277;21938;-59
2023/12/23 00:30:52;;;;;;;11.80;5.30;;;;;;;4.51;82.77;98140.58;108863;1277;22022;-60
2023/12/23 00:33:18;;;;;;;9.00;4.80;;;;;;;4.50;82.89;98138.86;108814;1277;21976;-61
2023/12/23 00:35:43;;;;;;;9.70;5.40;;;;;;;4.49;82.85;98137.85;108761;1277;22024;-62
2023/12/23 00:38:09;;;;;;;12.60;5.30;;;;;;;4.45;82.71;98133.93;108821;1277;21979;-60
2023/12/23 00:40:35;;;;;;;10.70;5.60;;;;;;;4.43;82.67;98137.10;108799;1277;21978;-63
2023/12/23 00:43:01;;;;;;;8.30;5.30;;;;;;;4.41;82.32;98142.05;108938;1277;21976;-60
2023/12/23 00:45:26;;;;;;;8.60;4.30;;;;;;;4.39;82.58;98144.34;108844;1277;24078;-62
2023/12/23 00:47:52;;;;;;;8.90;4.20;;;;;;;4.40;82.59;98139.30;108776;1273;21979;-60
2023/12/23 00:50:18;;;;;;;8.30;4.30;;;;;;;4.40;82.53;98139.30;108819;1277;21986;-62
2023/12/23 00:52:44;;;;;;;7.60;4.00;;;;;;;4.39;82.41;98136.52;108803;1277;21986;-63
2023/12/23 00:55:09;;;;;;;12.60;4.30;;;;;;;4.38;82.27;98134.45;108801;1277;21985;-62
2023/12/23 00:57:35;;;;;;;11.90;4.10;;;;;;;4.39;82.38;98132.02;108768;1277;21990;-62
2023/12/23 01:00:00;;;;;;;8.10;4.60;;;;;;;4.39;82.33;98128.54;108865;1277;21980;-60
2023/12/23 01:02:26;;;;;;;10.00;4.20;;;;;;;4.37;82.32;98125.64;108808;1277;22014;-63
2023/12/23 01:04:54;;;;;;;10.90;5.00;;;;;;;4.34;82.06;98123.10;108796;1277;22073;-61
2023/12/23 01:07:20;;;;;;;8.10;3.70;;;;;;;4.31;82.30;98117.95;108821;1277;22031;-63
2023/12/23 01:09:46;;;;;;;9.10;4.10;;;;;;;4.29;82.14;98111.21;108807;1277;22024;-62
2023/12/23 01:12:11;;;;;;;8.80;4.40;;;;;;;4.27;82.14;98112.15;108806;1277;21979;-60
2023/12/23 01:14:37;;;;;;;6.60;3.40;;;;;;;4.24;82.14;98112.73;108782;1267;21974;-59
2023/12/23 01:17:03;;;;;;;8.60;4.20;;;;;;;4.22;82.06;98113.63;108832;1277;22005;-61
2023/12/23 01:19:29;;;;;;;7.80;3.60;;;;;;;4.25;82.26;98114.95;108001;1277;1003076;-59
2023/12/23 01:21:54;;;;;;;7.20;3.50;;;;;;;4.26;82.39;98113.55;107986;1277;1002225;-61
2023/12/23 01:24:20;;;;;;;9.90;4.40;;;;;;;4.26;82.39;98114.76;108761;1267;22083;-59
2023/12/23 01:26:45;;;;;;;8.40;4.10;;;;;;;4.25;82.12;98111.48;108781;1277;21969;-62
2023/12/23 01:29:11;;;;;;;10.40;4.60;;;;;;;4.24;82.08;98114.80;108869;1273;21980;-61
2023/12/23 01:31:39;;;;;;;7.70;3.50;;;;;;;4.24;82.13;98119.33;108784;1277;21995;-62
2023/12/23 01:34:05;;;;;;;10.90;4.00;;;;;;;4.23;82.15;98126.11;108838;1277;21989;-60
2023/12/23 01:36:30;;;;;;;10.80;4.00;;;;;;;4.21;82.41;98130.49;108145;1277;1002226;-62
2023/12/23 01:38:56;;;;;;;10.50;5.00;;;;;;;4.20;82.41;98130.17;108880;1277;21981;-59
2023/12/23 01:41:22;;;;;;;11.90;5.10;;;;;;;4.16;82.44;98134.09;108765;1277;22012;-59
2023/12/23 01:43:47;;;;;;;9.30;4.40;;;;;;;4.15;82.46;98132.38;108750;1267;22093;-62
2023/12/23 01:46:13;;;;;;;11.80;4.70;;;;;;;4.12;82.47;98136.07;108785;1277;21982;-63
2023/12/23 01:48:39;;;;;;;7.50;4.00;;;;;;;4.08;83.02;98134.27;108576;1277;21974;-61
2023/12/23 01:51:05;;;;;;;6.50;4.10;;;;;;;4.12;83.27;98137.14;108794;1277;21990;-59
2023/12/23 01:53:31;;;;;;;8.30;4.10;;;;;;;4.13;83.77;98139.02;108818;1277;22949;-59
2023/12/23 01:55:56;;;;;;;9.30;4.30;;;;;;;4.19;83.86;98137.85;108086;1273;1002999;-60
2023/12/23 01:58:22;;;;;;;9.30;4.40;;;;;;;4.22;83.77;98139.50;108475;1277;22113;-62
2023/12/23 02:00:47;;;;;;;9.80;4.20;;;;;;;4.25;83.67;98142.73;108497;1274;22036;-61
2023/12/23 02:03:13;;;;;;;10.70;5.00;;;;;;;4.25;84.11;98137.18;108769;1273;21979;-62
2023/12/23 02:05:39;;;;;;;11.70;5.30;;;;;;;4.24;85.04;98134.27;108796;1277;21976;-62
2023/12/23 02:08:06;;;;;;;8.60;4.60;;;;;;;4.25;85.61;98131.80;108792;1277;22000;-61
2023/12/23 02:10:32;;;;;;;11.10;5.10;;;;;;;4.29;85.35;98131.53;108792;1277;21978;-60
2023/12/23 02:13:08;;;;;;;8.40;4.10;;;;;;;4.32;85.04;98125.58;108805;1277;22022;-60
2023/12/23 02:15:33;;;;;;;9.50;4.20;;;;;;;4.37;84.70;98123.91;108735;1277;22005;-60
2023/12/23 02:18:00;;;;;;;10.00;4.40;;;;;;;4.41;84.59;98122.25;108582;1277;21986;-61
2023/12/23 02:20:26;;;;;;;10.70;4.00;;;;;;;4.43;84.38;98118.52;108863;1276;21979;-60
2023/12/23 02:22:51;;;;;;;8.00;4.20;;;;;;;4.41;84.68;98113.70;108740;1277;21979;-62
2023/12/23 02:25:17;;;;;;;9.40;4.30;;;;;;;4.36;84.79;98117.66;108652;1271;21967;-60
2023/12/23 02:27:50;;;;;;;8.00;3.80;;;;;;;4.40;84.53;98120.88;108852;1277;21980;-62
2023/12/23 02:30:15;;;;;;;7.90;4.00;;;;;;;4.44;84.63;98123.54;108915;1264;24365;-60
2023/12/23 02:32:44;;;;;;;7.40;3.80;;;;;;;4.47;84.33;98119.31;108834;1274;21999;-62
2023/12/23 02:35:11;;;;;;;8.40;3.50;;;;;;;4.50;84.03;98119.08;108511;1277;22042;-59
2023/12/23 02:37:36;;;;;;;5.90;3.60;;;;;;;4.53;84.17;98118.65;108085;1277;1002243;-62
2023/12/23 02:40:03;;;;;;;5.60;3.20;;;;;;;4.56;84.17;98116.48;108795;1277;21983;-60
2023/12/23 02:42:28;;;;;;;7.70;3.50;;;;;;;4.61;84.41;98114.65;108818;1277;22437;-62
2023/12/23 02:44:54;;;;;;;6.30;3.60;;;;;;;4.67;84.84;98111.19;108855;1271;21982;-62
2023/12/23 02:47:19;;;;;;;7.80;3.90;;;;;;;4.72;84.69;98101.16;108783;1271;21993;-62
2023/12/23 02:49:45;;;;;;;7.10;2.80;;;;;;;4.77;84.75;98097.22;108796;1271;21979;-61
2023/12/23 02:52:10;;;;;;;7.00;3.00;;;;;;;4.82;84.51;98093.45;108822;1277;21985;-60
2023/12/23 02:54:37;;;;;;;6.10;3.10;;;;;;;4.87;84.87;98096.95;108831;1277;22085;-61
2023/12/23 02:57:02;;;;;;;6.60;3.10;;;;;;;4.91;84.94;98094.77;108750;1271;21985;-62
2023/12/23 02:59:28;;;;;;;7.40;3.60;;;;;;;4.95;84.89;98092.77;108869;1277;21977;-60
2023/12/23 03:01:53;;;;;;;5.30;2.40;;;;;;;4.99;85.33;98096.83;108882;1277;21973;-62
2023/12/23 03:04:19;;;;;;;6.00;2.60;;;;;;;5.06;85.56;98096.14;108775;1277;21979;-62
2023/12/23 03:06:45;;;;;;;6.00;3.20;;;;;;;5.12;85.65;98092.85;108867;1273;21977;-60
2023/12/23 03:09:10;;;;;;;7.00;2.60;;;;;;;5.16;85.73;98089.27;108829;1277;22002;-63
2023/12/23 03:11:37;;;;;;;6.30;3.30;;;;;;;5.17;85.77;98081.23;108810;1277;22005;-60
2023/12/23 03:14:04;;;;;;;7.50;3.70;;;;;;;5.20;85.45;98075.41;108821;1277;21979;-60
2023/12/23 03:16:33;;;;;;;6.10;2.80;;;;;;;5.21;85.32;98071.20;108894;1277;21988;-62
2023/12/23 03:19:03;;;;;;;6.20;3.40;;;;;;;5.22;85.11;98071.36;108012;1277;1003069;-60
2023/12/23 03:21:29;;;;;;;6.30;3.30;;;;;;;5.22;84.61;98068.94;108603;1277;23095;-60
2023/12/23 03:23:55;;;;;;;6.50;2.30;;;;;;;5.21;84.67;98070.00;108677;1270;22016;-63
2023/12/23 03:26:21;;;;;;;4.10;2.30;;;;;;;5.20;84.45;98070.71;108823;1277;21999;-63
2023/12/23 03:28:47;;;;;;;6.50;3.00;;;;;;;5.19;84.24;98066.21;108785;1277;22012;-63
2023/12/23 03:31:13;;;;;;;7.50;2.90;;;;;;;5.17;83.93;98062.45;108691;1277;148668;-63
2023/12/23 03:33:41;;;;;;;5.50;2.80;;;;;;;5.16;83.60;98063.19;108621;1277;21973;-59
2023/12/23 03:36:07;;;;;;;5.80;3.00;;;;;;;5.12;83.18;98056.52;108621;1277;21990;-62
2023/12/23 03:38:33;;;;;;;5.60;2.90;;;;;;;5.07;83.07;98053.33;108740;1269;22015;-62
2023/12/23 03:40:59;;;;;;;4.90;2.50;;;;;;;5.02;82.79;98051.73;108765;1277;21982;-60
2023/12/23 03:43:25;;;;;;;6.30;3.50;;;;;;;5.02;83.06;98050.35;108651;1267;21979;-63
2023/12/23 03:45:50;;;;;;;5.30;2.80;;;;;;;5.03;82.96;98053.45;108739;1270;21977;-60
2023/12/23 03:48:16;;;;;;;6.40;2.80;;;;;;;5.00;82.46;98058.92;108821;1277;22085;-62
2023/12/23 03:50:41;;;;;;;6.00;2.40;;;;;;;4.94;82.00;98061.51;108768;1277;22018;-62
2023/12/23 03:53:07;;;;;;;5.70;2.50;;;;;;;4.88;81.70;98059.58;108820;1277;23469;-62
2023/12/23 03:55:32;;;;;;;5.40;2.70;;;;;;;4.84;81.78;98053.25;108861;1277;22024;-62
2023/12/23 03:57:59;;;;;;;6.90;2.70;;;;;;;4.80;81.94;98053.01;108926;1267;21968;-60
2023/12/23 04:00:25;;;;;;;5.90;2.80;;;;;;;4.76;81.72;98063.38;108843;1277;22003;-62
2023/12/23 04:02:51;;;;;;;5.80;2.60;;;;;;;4.70;81.66;98069.06;108886;1273;21984;-63
2023/12/23 04:05:19;;;;;;;6.60;2.90;;;;;;;4.66;81.15;98079.09;108838;1277;22019;-60
2023/12/23 04:07:48;;;;;;;4.90;2.30;;;;;;;4.57;80.86;98092.65;108851;1277;22087;-62
2023/12/23 04:10:14;;;;;;;9.90;2.40;;;;;;;4.49;80.90;98107.10;108822;1277;21977;-62
2023/12/23 04:12:40;;;;;;;5.50;2.30;;;;;;;4.39;81.28;98121.08;108820;1277;21981;-61
2023/12/23 04:15:06;;;;;;;5.20;2.20;;;;;;;4.35;81.07;98122.89;108789;1267;22054;-62
2023/12/23 04:17:32;;;;;;;7.00;2.70;;;;;;;4.32;81.41;98136.69;108827;1276;21976;-60
2023/12/23 04:19:58;;;;;;;7.60;2.30;;;;;;;4.30;81.96;98140.88;108082;1277;1002894;-63
2023/12/23 04:22:23;;;;;;;7.20;3.40;;;;;;;4.32;82.58;98143.10;108150;1271;1002533;-62
2023/12/23 04:24:49;;;;;;;7.30;3.70;;;;;;;4.38;82.93;98152.35;108833;1264;21980;-60
2023/12/23 04:27:14;;;;;;;6.90;2.80;;;;;;;4.50;83.20;98155.55;108807;1277;21979;-62
2023/12/23 04:29:40;;;;;;;4.30;2.50;;;;;;;4.60;83.28;98154.46;108813;1277;21978;-60
2023/12/23 04:32:06;;;;;;;4.20;2.20;;;;;;;4.69;83.39;98156.48;108848;1277;22500;-63
2023/12/23 04:34:31;;;;;;;5.90;2.60;;;;;;;4.80;83.50;98161.96;108835;1277;21984;-61
2023/12/23 04:36:57;;;;;;;7.40;2.50;;;;;;;4.89;83.53;98163.99;108801;1277;21986;-63
2023/12/23 04:39:22;;;;;;;6.50;2.60;;;;;;;4.95;83.20;98156.02;108810;1277;21979;-62
2023/12/23 04:41:48;;;;;;;6.50;2.20;;;;;;;4.98;82.90;98151.26;108916;1277;21979;-60
2023/12/23 04:44:14;;;;;;;5.40;2.60;;;;;;;4.97;82.52;98154.41;108841;1267;22000;-60
2023/12/23 04:46:41;;;;;;;7.10;2.30;;;;;;;4.98;82.48;98158.57;108834;1268;21989;-63
2023/12/23 04:49:07;;;;;;;8.30;2.20;;;;;;;5.00;82.52;98153.29;108838;1274;21993;-60
2023/12/23 04:51:33;;;;;;;5.00;2.00;;;;;;;4.98;83.38;98147.60;108858;1277;21987;-60
2023/12/23 04:53:58;;;;;;;5.20;2.80;;;;;;;5.05;83.22;98152.30;108804;1277;21977;-63
2023/12/23 04:56:24;;;;;;;4.80;2.30;;;;;;;5.07;83.07;98149.81;108876;1277;21980;-63
2023/12/23 04:58:49;;;;;;;5.00;2.00;;;;;;;5.09;83.73;98145.41;108856;1277;22007;-60
2023/12/23 05:01:15;;;;;;;7.00;2.60;;;;;;;5.16;83.82;98146.30;108832;1271;22034;-62
2023/12/23 05:03:41;;;;;;;4.30;2.30;;;;;;;5.21;83.85;98147.38;108850;1271;21979;-62
2023/12/23 05:06:07;;;;;;;5.60;2.70;;;;;;;5.23;83.70;98156.71;108634;1277;22039;-61
2023/12/23 05:08:32;;;;;;;5.30;2.80;;;;;;;5.26;83.64;98163.08;108676;1277;22055;-63
2023/12/23 05:10:59;;;;;;;5.90;2.90;;;;;;;5.26;84.02;98166.38;108842;1277;22026;-63
2023/12/23 05:13:26;;;;;;;5.10;2.90;;;;;;;5.30;83.88;98161.05;108878;1277;21953;-64
2023/12/23 05:15:52;;;;;;;4.70;2.40;;;;;;;5.35;83.97;98154.48;108720;1277;22338;-64
2023/12/23 05:18:19;;;;;;;4.50;2.50;;;;;;;5.41;84.16;98155.19;108737;1278;21981;-63
2023/12/23 05:20:45;;;;;;;5.30;2.50;;;;;;;5.48;84.07;98156.22;108843;1270;21987;-63
2023/12/23 05:23:10;;;;;;;6.80;3.30;;;;;;;5.55;84.16;98155.85;108813;1270;21987;-61
2023/12/23 05:25:37;;;;;;;7.00;3.50;;;;;;;5.61;84.47;98159.34;108515;1278;21990;-61
2023/12/23 05:28:04;;;;;;;7.00;3.10;;;;;;;5.66;84.31;98154.87;108510;1278;21994;-63
2023/12/23 05:30:30;;;;;;;5.20;2.70;;;;;;;5.70;84.35;98153.38;108704;1273;22087;-63
2023/12/23 05:32:57;;;;;;;6.70;2.70;;;;;;;5.72;84.11;98153.13;108716;1271;22007;-61
2023/12/23 05:35:22;;;;;;;8.10;3.10;;;;;;;5.70;84.05;98150.59;108754;1277;21989;-60
2023/12/23 05:37:48;;;;;;;9.10;3.70;;;;;;;5.71;84.05;98150.20;108707;1267;22015;-59
2023/12/23 05:40:13;;;;;;;10.90;3.80;;;;;;;5.71;83.97;98144.65;108768;1273;22020;-60
2023/12/23 05:42:39;;;;;;;13.60;4.80;;;;;;;5.71;84.23;98136.27;108806;1277;22443;-61
2023/12/23 05:45:05;;;;;;;13.30;4.30;;;;;;;5.74;84.34;98124.73;108729;1267;21989;-63
2023/12/23 05:47:33;;;;;;;9.10;3.00;;;;;;;5.75;84.49;98137.73;108775;1277;23703;-61
2023/12/23 05:49:58;;;;;;;8.60;3.40;;;;;;;5.74;84.01;98160.53;108706;1277;21986;-62
2023/12/23 05:52:24;;;;;;;9.10;3.20;;;;;;;5.76;84.13;98159.45;108778;1267;21978;-62
2023/12/23 05:54:50;;;;;;;7.30;2.80;;;;;;;5.77;84.21;98164.80;108933;1277;22036;-60
2023/12/23 05:57:15;;;;;;;5.10;2.60;;;;;;;5.78;84.07;98167.73;108746;1277;21999;-60
2023/12/23 05:59:41;;;;;;;6.00;2.80;;;;;;;5.77;83.65;98172.99;108791;1275;21982;-62
2023/12/23 06:02:07;;;;;;;5.60;2.90;;;;;;;5.75;83.76;98181.05;108797;1277;21979;-60
2023/12/23 06:04:32;;;;;;;7.10;3.80;;;;;;;5.72;83.21;98181.14;108823;1277;22002;-62
2023/12/23 06:06:59;;;;;;;9.70;3.70;;;;;;;5.68;83.28;98179.70;108842;1277;21979;-61
2023/12/23 06:09:25;;;;;;;9.90;3.60;;;;;;;5.62;83.35;98176.70;108624;1277;21976;-60
2023/12/23 06:11:51;;;;;;;7.20;3.90;;;;;;;5.59;83.15;98167.40;108610;1277;21984;-62
2023/12/23 06:14:16;;;;;;;11.10;3.10;;;;;;;5.56;83.08;98168.02;107956;1277;1003173;-60
2023/12/23 06:16:42;;;;;;;7.90;3.10;;;;;;;5.56;83.28;98167.30;107989;1277;1002318;-60
2023/12/23 06:19:08;;;;;;;11.20;3.60;;;;;;;5.57;83.36;98159.30;108022;1277;1002570;-63
2023/12/23 06:21:34;;;;;;;8.90;3.50;;;;;;;5.55;83.31;98162.47;108452;1277;21974;-63
2023/12/23 06:23:59;;;;;;;9.20;3.70;;;;;;;5.55;83.69;98162.27;108794;1277;21972;-60
2023/12/23 06:26:25;;;;;;;6.00;3.40;;;;;;;5.62;84.51;98160.20;108820;1274;22007;-61
2023/12/23 06:28:51;;;;;;;8.30;3.40;;;;;;;5.72;85.06;98166.34;108830;1277;22020;-63
2023/12/23 06:31:16;;;;;;;6.60;3.60;;;;;;;5.83;85.43;98174.92;108864;1267;21980;-64
2023/12/23 06:33:42;;;;;;;6.40;3.50;;;;;;;5.89;85.00;98178.94;108860;1267;21977;-63
2023/12/23 06:36:08;;;;;;;7.80;3.10;;;;;;;5.92;84.55;98175.89;108828;1274;21987;-63
2023/12/23 06:38:35;;;;;;;6.60;3.10;;;;;;;5.95;84.76;98178.58;108786;1272;21982;-62
2023/12/23 06:41:02;;;;;;;6.00;3.40;;;;;;;5.95;84.50;98179.63;107934;1275;1006181;-60
2023/12/23 06:43:29;;;;;;;6.90;3.80;;;;;;;5.95;83.94;98173.52;108677;1268;21980;-59
2023/12/23 06:45:55;;;;;;;7.60;3.20;;;;;;;5.92;83.41;98173.10;108722;1277;21978;-62
2023/12/23 06:48:20;;;;;;;9.50;3.70;;;;;;;5.88;83.17;98171.81;108082;1277;1002467;-60
2023/12/23 06:50:46;;;;;;;9.00;5.40;;;;;;;5.87;83.43;98177.77;108078;1274;1002377;-63
2023/12/23 06:53:12;;;;;;;8.20;4.80;;;;;;;5.87;83.64;98192.91;108041;1277;1002733;-64
2023/12/23 06:55:37;;;;;;;7.20;4.30;;;;;;;5.86;83.21;98204.95;108818;1277;21942;-63
2023/12/23 06:58:03;;;;;;;8.20;3.90;;;;;;;5.78;82.45;98211.95;108536;1277;22852;-59
2023/12/23 07:00:29;;;;;;;13.70;4.00;;;;;;;5.78;84.17;98223.25;108939;1277;22017;-59
2023/12/23 07:02:55;;;;;;;7.30;4.00;;;;;;;5.95;85.52;98229.08;108847;1277;22010;-60
2023/12/23 07:05:20;;;;;;;7.10;4.00;;;;;;;6.00;84.81;98229.13;108125;1268;1003048;-62
2023/12/23 07:07:46;;;;;;;8.70;4.10;;;;;;;5.97;84.42;98231.08;108910;1267;21989;-61
2023/12/23 07:10:13;;;;;;;5.60;3.50;;;;;;;5.99;84.39;98236.63;108877;1267;22022;-61
2023/12/23 07:12:40;;;;;;;8.40;3.90;;;;;;;6.01;84.83;98237.46;108818;1277;21981;-62
2023/12/23 07:15:07;;;;;;;7.40;3.90;;;;;;;6.03;84.69;98234.79;108113;1276;1002143;-62
2023/12/23 07:17:33;;;;;;;6.60;3.50;;;;;;;6.08;85.04;98238.50;108851;1273;21983;-62
2023/12/23 07:19:59;;;;;;;7.60;3.70;;;;;;;6.12;85.06;98239.25;108846;1264;21996;-62
2023/12/23 07:22:28;;;;;;;7.40;3.60;;;;;;;6.13;84.98;98240.27;108855;1273;21990;-61
2023/12/23 07:24:55;;;;;;;9.20;4.30;;;;;;;6.14;84.65;98235.02;108742;1278;23052;-62
2023/12/23 07:27:20;;;;;;;8.20;4.00;;;;;;;6.15;84.72;98233.61;108810;1267;21990;-61
2023/12/23 07:29:48;;;;;;;11.70;3.80;;;;;;;6.17;84.92;98234.08;108813;1273;21991;-61
2023/12/23 07:32:14;;;;;;;11.10;4.00;;;;;;;6.20;85.19;98239.54;108743;1271;21992;-62
2023/12/23 07:34:40;;;;;;;8.90;4.30;;;;;;;6.19;85.04;98244.61;108752;1274;22139;-62
2023/12/23 07:37:05;;;;;;;8.70;4.20;;;;;;;6.17;84.81;98251.14;108707;1274;21980;-63
2023/12/23 07:39:31;;;;;;;8.20;4.40;;;;;;;6.16;84.81;98251.33;108783;1277;21979;-62
2023/12/23 07:41:59;;;;;;;9.60;4.20;;;;;;;6.18;85.19;98250.40;108883;1271;21986;-62
2023/12/23 07:44:25;;;;;;;8.80;3.50;;;;;;;6.25;85.80;98248.99;108852;1273;21982;-61
2023/12/23 07:46:50;;;;;;;7.10;3.70;;;;;;;6.32;85.97;98249.64;108799;1277;21970;-62
2023/12/23 07:49:16;;;;;;;6.80;3.80;;;;;;;6.40;86.13;98252.54;108839;1277;21978;-62
2023/12/23 07:51:41;;;;;;;7.20;4.00;;;;;;;6.50;86.55;98254.69;108786;1277;21978;-60
2023/12/23 07:54:07;;;;;;;8.10;4.30;;;;;;;6.59;86.65;98255.82;108147;1277;1002421;-61
2023/12/23 07:56:33;;;;;;;9.30;4.80;;;;;;;6.65;86.63;98256.52;108849;1277;21997;-61
2023/12/23 07:58:58;;;;;;;13.30;7.80;;;;;;;6.72;86.98;98252.64;108831;1277;21982;-60
2023/12/23 08:01:24;;;;;;;12.60;7.60;;;;;;;6.79;86.63;98252.78;108875;1268;21980;-63
2023/12/23 08:03:50;;;;;;;10.00;5.80;;;;;;;6.85;86.71;98251.73;108811;1277;22486;-62
2023/12/23 08:06:16;;;;;;;9.10;4.60;;;;;;;6.89;86.47;98250.02;108859;1267;21971;-62
2023/12/23 08:08:42;;;;;;;8.30;4.20;;;;;;;6.92;86.04;98252.90;108895;1277;21979;-61
2023/12/23 08:11:08;;;;;;;9.80;4.20;;;;;;;6.99;86.69;98250.95;108826;1277;22002;-61
2023/12/23 08:13:34;;;;;;;7.10;3.90;;;;;;;7.09;87.10;98256.56;108810;1277;21983;-62
2023/12/23 08:15:59;;;;;;;7.00;3.80;;;;;;;7.18;87.24;98260.43;108878;1277;22054;-61
2023/12/23 08:18:25;;;;;;;7.80;4.40;;;;;;;7.27;86.96;98260.19;108822;1267;21980;-61
2023/12/23 08:20:50;;;;;;;8.60;3.60;;;;;;;7.34;87.15;98259.44;108840;1273;23727;-63
2023/12/23 08:23:16;;;;;;;6.90;4.00;;;;;;;7.37;86.99;98260.00;108728;1277;21967;-60
2023/12/23 08:25:42;;;;;;;8.70;4.80;;;;;;;7.42;86.94;98259.32;108822;1277;23606;-62
2023/12/23 08:28:08;;;;;;;7.00;4.30;;;;;;;7.48;87.02;98255.11;108784;1274;21985;-62
2023/12/23 08:30:33;;;;;;;11.10;6.70;;;;;;;7.54;87.09;98253.67;108607;1270;23062;-62
2023/12/23 08:32:59;;;;;;;9.40;5.70;;;;;;;7.61;87.38;98255.54;108455;1273;21993;-62
2023/12/23 08:35:25;;;;;;;11.20;6.10;;;;;;;7.67;87.21;98253.08;108450;1265;21992;-61
2023/12/23 08:37:51;;;;;;;16.40;10.50;;;;;;;7.67;86.77;98252.90;107908;1277;1002542;-61
2023/12/23 08:40:17;;;;;;;38.70;20.80;;;;;;;7.68;86.84;98248.67;108592;1270;21978;-62
2023/12/23 08:42:44;;;;;;;26.40;18.40;;;;;;;7.69;86.84;98244.47;108634;1267;21990;-61
2023/12/23 08:45:10;;;;;;;48.90;33.60;;;;;;;7.70;86.94;98245.10;108598;1277;21980;-62
2023/12/23 08:47:35;;;;;;;56.80;37.60;;;;;;;7.74;87.09;98244.47;107887;1265;1002262;-61
2023/12/23 08:50:01;;;;;;;17.90;12.00;;;;;;;7.76;87.25;98240.71;107791;1273;1004002;-62
2023/12/23 08:52:27;;;;;;;19.70;9.90;;;;;;;7.75;87.11;98241.97;108502;1277;22601;-61
2023/12/23 08:54:53;;;;;;;9.60;5.40;;;;;;;7.72;86.80;98245.93;107968;1273;1001923;-61
2023/12/23 08:57:18;;;;;;;11.80;6.20;;;;;;;7.69;86.51;98251.44;107935;1277;1003248;-61
2023/12/23 08:59:44;;;;;;;18.20;11.60;;;;;;;7.65;86.58;98252.44;107896;1267;1003052;-61
2023/12/23 09:02:10;;;;;;;13.20;7.90;;;;;;;7.67;86.77;98255.53;108648;1277;23299;-61
2023/12/23 09:04:35;;;;;;;11.30;6.40;;;;;;;7.67;86.78;98252.91;108443;1277;23602;-61
2023/12/23 09:07:01;;;;;;;11.90;8.20;;;;;;;7.68;87.16;98256.19;108478;1278;23605;-61
2023/12/23 09:09:27;;;;;;;12.20;8.10;;;;;;;7.72;87.34;98259.20;108602;1264;21978;-61
2023/12/23 09:11:52;;;;;;;16.90;12.00;;;;;;;7.75;87.38;98266.05;108694;1277;21981;-63
2023/12/23 09:14:18;;;;;;;13.00;9.70;;;;;;;7.81;87.74;98273.89;108600;1277;21982;-62
2023/12/23 09:16:44;;;;;;;11.70;6.90;;;;;;;7.91;88.59;98270.41;108554;1277;21981;-61
2023/12/23 09:19:09;;;;;;;11.70;8.20;;;;;;;7.97;89.04;98273.67;108640;1266;21977;-63
2023/12/23 09:21:35;;;;;;;17.60;11.90;;;;;;;8.06;89.66;98274.06;108630;1270;22012;-61
2023/12/23 09:24:00;;;;;;;11.10;6.50;;;;;;;8.13;89.58;98273.29;108662;1273;21977;-61
2023/12/23 09:26:26;;;;;;;6.60;3.80;;;;;;;8.21;89.49;98273.52;108644;1268;21979;-62
2023/12/23 09:28:52;;;;;;;7.40;3.50;;;;;;;8.29;88.51;98272.37;108620;1277;21989;-61
2023/12/23 09:31:17;;;;;;;5.90;2.50;;;;;;;8.35;88.40;98279.15;108680;1266;21982;-61
2023/12/23 09:33:44;;;;;;;5.80;3.20;;;;;;;8.41;87.91;98281.19;108683;1277;21987;-60
2023/12/23 09:36:12;;;;;;;6.70;2.90;;;;;;;8.42;86.91;98285.19;108649;1274;21981;-60
2023/12/23 09:38:38;;;;;;;6.40;3.00;;;;;;;8.39;86.27;98288.79;108676;1273;23043;-61
2023/12/23 09:41:03;;;;;;;6.60;2.90;;;;;;;8.37;86.03;98291.15;108602;1267;21987;-61
2023/12/23 09:43:29;;;;;;;5.80;3.30;;;;;;;8.33;86.03;98293.53;108625;1274;21981;-62
2023/12/23 09:45:56;;;;;;;7.40;2.90;;;;;;;8.29;85.62;98290.54;108620;1277;21987;-62
2023/12/23 09:48:22;;;;;;;7.90;3.80;;;;;;;8.23;85.39;98286.38;108688;1264;21978;-61
2023/12/23 09:50:49;;;;;;;8.60;3.00;;;;;;;8.17;85.11;98285.90;108520;1267;24110;-62
2023/12/23 09:53:14;;;;;;;10.00;3.70;;;;;;;8.14;85.02;98280.44;108693;1277;21980;-62
2023/12/23 09:55:40;;;;;;;6.50;3.10;;;;;;;8.09;85.31;98278.30;108657;1277;21991;-61
2023/12/23 09:58:06;;;;;;;6.80;3.20;;;;;;;8.06;85.32;98277.90;108698;1267;21980;-61
2023/12/23 10:00:32;;;;;;;6.70;2.70;;;;;;;8.06;85.62;98279.84;108473;1270;22183;-60
2023/12/23 10:02:59;;;;;;;6.90;3.10;;;;;;;7.96;85.70;98283.33;108657;1278;22111;-60
2023/12/23 10:05:29;;;;;;;6.60;3.10;;;;;;;7.97;85.87;98286.24;108716;1277;21980;-60
2023/12/23 10:07:58;;;;;;;6.00;3.10;;;;;;;7.99;85.65;98287.77;108842;1277;21977;-60
2023/12/23 10:10:24;;;;;;;8.50;3.10;;;;;;;8.00;85.97;98280.03;108841;1273;21977;-60
2023/12/23 10:12:50;;;;;;;7.20;3.30;;;;;;;8.03;86.35;98284.81;108858;1277;21988;-60
2023/12/23 10:15:16;;;;;;;8.00;3.60;;;;;;;8.03;86.19;98289.36;108447;1277;22017;-61
2023/12/23 10:17:41;;;;;;;6.40;3.30;;;;;;;8.04;86.34;98279.02;108820;1274;21987;-61
2023/12/23 10:20:08;;;;;;;8.70;3.30;;;;;;;8.07;86.70;98275.60;108784;1275;21977;-61
2023/12/23 10:22:36;;;;;;;6.10;3.40;;;;;;;8.12;87.09;98272.13;108529;1277;22030;-61
2023/12/23 10:25:02;;;;;;;7.30;3.20;;;;;;;8.16;87.25;98270.71;108094;1277;1002458;-61
2023/12/23 10:27:30;;;;;;;7.80;3.60;;;;;;;8.22;87.56;98271.20;108848;1277;21984;-59
2023/12/23 10:29:56;;;;;;;6.20;3.10;;;;;;;8.30;87.88;98264.31;108849;1274;21988;-60
2023/12/23 10:32:27;;;;;;;7.20;3.40;;;;;;;8.32;87.31;98255.48;108645;1273;22017;-61
2023/12/23 10:35:02;;;;;;;7.10;3.50;;;;;;;8.35;87.10;98250.66;108799;1271;21979;-60
2023/12/23 10:37:29;;;;;;;6.00;3.20;;;;;;;8.39;86.89;98252.98;108735;1277;21991;-62
2023/12/23 10:40:17;;;;;;;6.40;3.00;;;;;;;8.42;86.80;98253.54;108617;1277;21990;-61
2023/12/23 10:42:43;;;;;;;6.70;2.90;;;;;;;8.46;86.81;98249.54;108460;1277;21990;-60
2023/12/23 10:45:09;;;;;;;9.30;3.90;;;;;;;8.50;86.56;98249.79;108438;1266;21979;-60
2023/12/23 10:47:35;;;;;;;7.80;3.00;;;;;;;8.53;86.63;98247.92;108498;1270;21983;-62
2023/12/23 10:50:01;;;;;;;12.00;5.60;;;;;;;8.57;86.89;98253.02;108664;1273;21964;-60
2023/12/23 10:52:27;;;;;;;6.50;4.00;;;;;;;8.64;87.17;98259.58;107879;1277;1002397;-61
2023/12/23 10:54:53;;;;;;;7.20;3.90;;;;;;;8.69;86.88;98259.55;107798;1278;1002430;-61
2023/12/23 10:57:21;;;;;;;8.20;4.10;;;;;;;8.73;86.84;98255.38;108564;1278;21978;-62
2023/12/23 10:59:47;;;;;;;8.40;3.20;;;;;;;8.77;86.47;98255.23;109495;1267;21982;-61
2023/12/23 11:02:13;;;;;;;9.10;4.70;;;;;;;8.75;85.78;98253.57;107791;1278;1006281;-61
2023/12/23 11:04:41;;;;;;;8.00;3.70;;;;;;;8.72;85.31;98256.83;108524;1267;21965;-62
2023/12/23 11:07:07;;;;;;;7.30;4.10;;;;;;;8.70;84.91;98258.66;108704;1277;21992;-62
2023/12/23 11:09:32;;;;;;;8.90;4.10;;;;;;;8.66;84.55;98264.56;108476;1277;21979;-60
2023/12/23 11:11:58;;;;;;;8.40;4.80;;;;;;;8.62;84.76;98270.45;108481;1277;22153;-62
2023/12/23 11:14:23;;;;;;;8.80;4.50;;;;;;;8.62;85.17;98272.23;108485;1277;21990;-61
2023/12/23 11:16:50;;;;;;;10.80;5.10;;;;;;;8.61;84.73;98276.30;108767;1270;21977;-63
2023/12/23 11:19:15;;;;;;;8.40;4.30;;;;;;;8.58;83.91;98280.23;108784;1277;23667;-62
2023/12/23 11:21:41;;;;;;;13.20;6.00;;;;;;;8.56;83.65;98278.39;108686;1277;21980;-61
2023/12/23 11:24:36;;;;;;;6.00;3.10;;;;;;;8.53;83.32;98276.96;108667;1273;22758;-62